Cruz Sagrada — CUHG3 — position and weather

sailwx.info

Track history (hours):
 
Tides and Currents Weather Stations Pressure Air Temp Water Temp Dewpoint Dewpoint Depression Visibility Wind Speed Wind Dir Waves Ship Positions

Cruz Sagrada

Last reported at 2018-Jun-22 11:30 UTC. Time now 2018-Jun-22 11:31 UTC.
Position N 38°26' W 009°07'.

Length 18 m.

Type: Fishing. MMSI: 263290000.

Date/timePositionNaut miles runAvg speedWind from/ knotsBaromVisibWave heightAir tempDewpointWater temp
2018-Jun-22 11:30N 38°26' W 009°07'0 0.0
2018-Jun-22 11:00N 38°26' W 009°07'0 0.0
2018-Jun-22 10:30N 38°26' W 009°07'0 0.1
2018-Jun-22 09:59N 38°26' W 009°07'0 0.2
2018-Jun-22 09:29N 38°26' W 009°07'0 0.0
2018-Jun-22 09:00N 38°26' W 009°07'0 0.0
2018-Jun-22 08:30N 38°26' W 009°07'0 0.0
2018-Jun-22 08:00N 38°26' W 009°07'0 0.0
2018-Jun-22 07:30N 38°26' W 009°07'0 0.0
2018-Jun-22 06:59N 38°26' W 009°07'0 0.0
2018-Jun-22 06:29N 38°26' W 009°07'0 0.0
2018-Jun-22 06:00N 38°26' W 009°07'0 0.0
2018-Jun-22 05:30N 38°26' W 009°07'0 0.0
2018-Jun-22 04:50N 38°26' W 009°07'0 0.0
2018-Jun-22 04:27N 38°26' W 009°07'0 0.0
2018-Jun-22 03:54N 38°26' W 009°07'5 5.9
2018-Jun-22 03:03N 38°24' W 009°12'1 6.8
2018-Jun-22 02:56N 38°24' W 009°13'3 6.7
2018-Jun-22 02:30N 38°26' W 009°16'  
2018-Jun-19 01:31N 38°46' W 009°39'0 4.2
2018-Jun-19 01:30N 38°45' W 009°39'3 5.4
2018-Jun-19 01:00N 38°44' W 009°36'3 5.4
2018-Jun-19 00:30N 38°43' W 009°33'3 5.6
2018-Jun-19 00:00N 38°41' W 009°30'4 0.5
2018-Jun-18 16:00N 38°42' W 009°25'0 0.0
2018-Jun-18 15:27N 38°42' W 009°25'0 0.0
2018-Jun-18 15:00N 38°42' W 009°25'0 0.0
2018-Jun-18 14:30N 38°42' W 009°25'0 0.2
2018-Jun-18 14:00N 38°42' W 009°25'3 5.2
2018-Jun-18 13:30N 38°40' W 009°28'3 5.9
2018-Jun-18 13:00N 38°42' W 009°31'3 6.0
2018-Jun-18 12:30N 38°43' W 009°35'9 0.7
2018-Jun-18 00:13N 38°48' W 009°44'0 2.3
2018-Jun-18 00:00N 38°47' W 009°44'2 3.1
2018-Jun-17 23:21N 38°46' W 009°42'3 2.5
2018-Jun-17 22:12N 38°44' W 009°40'0 1.6
2018-Jun-17 22:00N 38°43' W 009°40'1 1.8
2018-Jun-17 21:30N 38°43' W 009°39'1 2.7
2018-Jun-17 21:00N 38°42' W 009°38'1 2.6
2018-Jun-17 20:30N 38°41' W 009°37'1 2.8
2018-Jun-17 20:00N 38°40' W 009°35'1 2.6
2018-Jun-17 19:30N 38°39' W 009°34'1 2.5
2018-Jun-17 19:01N 38°38' W 009°33'1 2.6
2018-Jun-17 18:30N 38°37' W 009°32'1 2.6
2018-Jun-17 18:00N 38°36' W 009°30'1 2.3
2018-Jun-17 17:28N 38°35' W 009°29'2 3.8
2018-Jun-17 17:00N 38°34' W 009°28'2 4.0
2018-Jun-17 16:30N 38°33' W 009°26'2 4.1
2018-Jun-17 16:00N 38°32' W 009°24'2 4.2
2018-Jun-17 15:30N 38°30' W 009°22'2 4.5
2018-Jun-17 14:59N 38°29' W 009°20'2 4.0
2018-Jun-17 14:30N 38°27' W 009°18'2 4.1
2018-Jun-17 14:00N 38°26' W 009°16'2 4.5
2018-Jun-17 13:30N 38°25' W 009°14'2 4.9
2018-Jun-17 13:00N 38°24' W 009°10'3 5.9
2018-Jun-17 12:30N 38°26' W 009°07'1 0.0
2018-Jun-16 23:05N 38°26' W 009°07'0 0.0
2018-Jun-16 23:01N 38°26' W 009°07'0 0.0
2018-Jun-16 22:31N 38°26' W 009°07'1 1.9
2018-Jun-16 22:01N 38°26' W 009°06'3 4.8
2018-Jun-16 21:24N 38°23' W 009°05'2 3.5
2018-Jun-16 20:46N 38°21' W 009°04'1 3.9
2018-Jun-16 20:29N 38°20' W 009°04'2 4.5
2018-Jun-16 20:00N 38°18' W 009°03'6 0.6
2018-Jun-16 10:20N 38°14' W 008°57'0 1.2
2018-Jun-16 10:00N 38°14' W 008°57'0 0.3
2018-Jun-16 09:30N 38°15' W 008°57'0 0.3
2018-Jun-16 09:00N 38°15' W 008°57'0 0.3
2018-Jun-16 08:30N 38°15' W 008°57'1 2.8
2018-Jun-16 08:00N 38°14' W 008°55'0 0.6
2018-Jun-16 07:30N 38°14' W 008°55'0 0.3
2018-Jun-16 07:00N 38°15' W 008°55'0 0.5
2018-Jun-16 06:30N 38°15' W 008°55'0 0.5
2018-Jun-16 06:00N 38°15' W 008°56'0 0.6
2018-Jun-16 05:30N 38°15' W 008°56'0 0.6
2018-Jun-16 05:00N 38°15' W 008°56'0 0.4
2018-Jun-16 04:30N 38°15' W 008°57'0 0.3
2018-Jun-16 04:00N 38°15' W 008°57'0 0.3
2018-Jun-16 03:30N 38°15' W 008°57'0 0.3
2018-Jun-16 03:00N 38°15' W 008°57'4 1.9
2018-Jun-16 00:58N 38°15' W 009°02'2 4.7
2018-Jun-16 00:30N 38°17' W 009°02'3 5.3
2018-Jun-16 00:00N 38°20' W 009°04'3 5.4
2018-Jun-15 23:28N 38°23' W 009°05'3 5.5
2018-Jun-15 23:00N 38°25' W 009°06'2 0.6
2018-Jun-15 20:24N 38°26' W 009°07'0 0.0
2018-Jun-15 20:00N 38°26' W 009°07'0 0.0
2018-Jun-15 19:29N 38°26' W 009°07'0 0.0
2018-Jun-15 18:35N 38°26' W 009°07'0 0.0
2018-Jun-15 18:29N 38°26' W 009°07'0 0.0
2018-Jun-15 18:00N 38°26' W 009°07'0 0.0
2018-Jun-15 17:29N 38°26' W 009°07'0 0.0
2018-Jun-15 17:00N 38°26' W 009°07'0 0.2
2018-Jun-15 16:30N 38°26' W 009°07'0 0.0
2018-Jun-15 15:59N 38°26' W 009°07'1 2.1
2018-Jun-15 15:30N 38°26' W 009°06'3 6.5
2018-Jun-15 15:00N 38°23' W 009°04'3 6.4
2018-Jun-15 14:30N 38°20' W 009°01'3 6.1
2018-Jun-15 14:00N 38°18' W 008°59'4 0.8
2018-Jun-15 08:57N 38°14' W 008°57'0 0.5
2018-Jun-15 08:30N 38°14' W 008°57'0 0.4
2018-Jun-15 08:00N 38°14' W 008°57'1 1.8
2018-Jun-15 07:30N 38°14' W 008°56'0 0.4
2018-Jun-15 06:59N 38°14' W 008°56'0 0.5
2018-Jun-15 06:30N 38°14' W 008°57'0 0.4
2018-Jun-15 06:00N 38°14' W 008°57'0 0.6
2018-Jun-15 05:30N 38°14' W 008°57'1 1.4
2018-Jun-15 05:00N 38°15' W 008°57'0 0.2
2018-Jun-15 04:30N 38°15' W 008°57'0 0.1
2018-Jun-15 04:00N 38°15' W 008°57'5 2.4
2018-Jun-15 02:04N 38°18' W 009°01'0 6.3
2018-Jun-15 02:00N 38°18' W 009°01'3 3.5
2018-Jun-15 01:16N 38°20' W 009°04'0 0.6
2018-Jun-15 01:00N 38°20' W 009°04'1 0.6
2018-Jun-14 23:54N 38°21' W 009°04'0 0.8
2018-Jun-14 23:30N 38°21' W 009°05'0 0.8
2018-Jun-14 23:00N 38°20' W 009°05'1 0.7
2018-Jun-14 21:15N 38°21' W 009°06'1 5.7
2018-Jun-14 21:00N 38°23' W 009°06'3 6.0
2018-Jun-14 20:30N 38°26' W 009°06'1 0.0
2018-Jun-13 23:16N 38°26' W 009°07'1 3.3
2018-Jun-13 23:00N 38°26' W 009°06'3 5.2
2018-Jun-13 22:29N 38°23' W 009°06'2 4.6
2018-Jun-13 22:00N 38°21' W 009°06'2 3.6
2018-Jun-13 21:30N 38°21' W 009°04'3 4.6
2018-Jun-13 20:55N 38°18' W 009°04'7 0.6
2018-Jun-13 09:11N 38°14' W 008°57'1 3.6
2018-Jun-13 09:00N 38°14' W 008°57'0 0.2
2018-Jun-13 08:30N 38°14' W 008°57'0 0.4
2018-Jun-13 08:01N 38°14' W 008°57'0 0.4
2018-Jun-13 07:30N 38°14' W 008°57'0 0.4
2018-Jun-13 07:00N 38°14' W 008°57'1 1.0
2018-Jun-13 06:31N 38°13' W 008°57'0 0.5
2018-Jun-13 06:01N 38°14' W 008°57'1 1.1
2018-Jun-13 05:31N 38°13' W 008°57'0 0.6
2018-Jun-13 05:01N 38°14' W 008°57'0 0.1
2018-Jun-13 03:01N 38°14' W 008°57'0 0.5
2018-Jun-13 03:00N 38°14' W 008°57'0 0.4
2018-Jun-13 02:29N 38°14' W 008°57'5 2.0
2018-Jun-12 23:56N 38°17' W 009°03'3 5.7
2018-Jun-12 23:30N 38°19' W 009°04'3 5.8
2018-Jun-12 22:59N 38°22' W 009°05'3 6.0
2018-Jun-12 22:29N 38°25' W 009°06'1 2.9
2018-Jun-12 21:59N 38°26' W 009°07'0 0.3
2018-Jun-12 21:30N 38°26' W 009°07'0 0.0
2018-Jun-12 20:59N 38°26' W 009°07'0 0.0
2018-Jun-12 20:30N 38°26' W 009°07'0 0.0
2018-Jun-12 20:00N 38°26' W 009°07'0 0.0
2018-Jun-12 19:30N 38°26' W 009°07'0 0.0
2018-Jun-12 19:00N 38°26' W 009°07'0 0.0
2018-Jun-12 18:30N 38°26' W 009°07'0 0.0
2018-Jun-12 18:00N 38°26' W 009°07'0 0.0
2018-Jun-12 17:30N 38°26' W 009°07'0 0.0
2018-Jun-12 17:00N 38°26' W 009°07'0 0.0
2018-Jun-12 16:30N 38°26' W 009°07'0 0.0
2018-Jun-12 16:00N 38°26' W 009°07'0 0.0
2018-Jun-12 15:30N 38°26' W 009°07'0 0.0
2018-Jun-12 15:00N 38°26' W 009°07'0 0.0
2018-Jun-12 14:30N 38°26' W 009°07'0 0.0
2018-Jun-12 14:00N 38°26' W 009°07'0 0.0
2018-Jun-12 13:30N 38°26' W 009°07'0 0.0
2018-Jun-12 12:58N 38°26' W 009°07'0 0.0
2018-Jun-12 12:30N 38°26' W 009°07'0 0.0
2018-Jun-12 12:00N 38°26' W 009°07'  
Track history (hours):
 
Tides and Currents Weather Stations Pressure Air Temp Water Temp Dewpoint Dewpoint Depression Visibility Wind Speed Wind Dir Waves Ship Positions

Cruz Sagrada

Last reported at 2018-Jun-22 11:30 UTC. Time now 2018-Jun-22 11:31 UTC.
Position N 38°26' W 009°07'.

Length 18 m.

Type: Fishing. MMSI: 263290000.

Date/timePositionNaut miles runAvg speedWind from/ knotsBaromVisibWave heightAir tempDewpointWater temp
2018-Jun-22 11:30N 38°26' W 009°07'0 0.0
2018-Jun-22 11:00N 38°26' W 009°07'0 0.0
2018-Jun-22 10:30N 38°26' W 009°07'0 0.1
2018-Jun-22 09:59N 38°26' W 009°07'0 0.2
2018-Jun-22 09:29N 38°26' W 009°07'0 0.0
2018-Jun-22 09:00N 38°26' W 009°07'0 0.0
2018-Jun-22 08:30N 38°26' W 009°07'0 0.0
2018-Jun-22 08:00N 38°26' W 009°07'0 0.0
2018-Jun-22 07:30N 38°26' W 009°07'0 0.0
2018-Jun-22 06:59N 38°26' W 009°07'0 0.0
2018-Jun-22 06:29N 38°26' W 009°07'0 0.0
2018-Jun-22 06:00N 38°26' W 009°07'0 0.0
2018-Jun-22 05:30N 38°26' W 009°07'0 0.0
2018-Jun-22 04:50N 38°26' W 009°07'0 0.0
2018-Jun-22 04:27N 38°26' W 009°07'0 0.0
2018-Jun-22 03:54N 38°26' W 009°07'5 5.9
2018-Jun-22 03:03N 38°24' W 009°12'1 6.8
2018-Jun-22 02:56N 38°24' W 009°13'3 6.7
2018-Jun-22 02:30N 38°26' W 009°16'  
2018-Jun-19 01:31N 38°46' W 009°39'0 4.2
2018-Jun-19 01:30N 38°45' W 009°39'3 5.4
2018-Jun-19 01:00N 38°44' W 009°36'3 5.4
2018-Jun-19 00:30N 38°43' W 009°33'3 5.6
2018-Jun-19 00:00N 38°41' W 009°30'4 0.5
2018-Jun-18 16:00N 38°42' W 009°25'0 0.0
2018-Jun-18 15:27N 38°42' W 009°25'0 0.0
2018-Jun-18 15:00N 38°42' W 009°25'0 0.0
2018-Jun-18 14:30N 38°42' W 009°25'0 0.2
2018-Jun-18 14:00N 38°42' W 009°25'3 5.2
2018-Jun-18 13:30N 38°40' W 009°28'3 5.9
2018-Jun-18 13:00N 38°42' W 009°31'3 6.0
2018-Jun-18 12:30N 38°43' W 009°35'9 0.7
2018-Jun-18 00:13N 38°48' W 009°44'0 2.3
2018-Jun-18 00:00N 38°47' W 009°44'2 3.1
2018-Jun-17 23:21N 38°46' W 009°42'3 2.5
2018-Jun-17 22:12N 38°44' W 009°40'0 1.6
2018-Jun-17 22:00N 38°43' W 009°40'1 1.8
2018-Jun-17 21:30N 38°43' W 009°39'1 2.7
2018-Jun-17 21:00N 38°42' W 009°38'1 2.6
2018-Jun-17 20:30N 38°41' W 009°37'1 2.8
2018-Jun-17 20:00N 38°40' W 009°35'1 2.6
2018-Jun-17 19:30N 38°39' W 009°34'1 2.5
2018-Jun-17 19:01N 38°38' W 009°33'1 2.6
2018-Jun-17 18:30N 38°37' W 009°32'1 2.6
2018-Jun-17 18:00N 38°36' W 009°30'1 2.3
2018-Jun-17 17:28N 38°35' W 009°29'2 3.8
2018-Jun-17 17:00N 38°34' W 009°28'2 4.0
2018-Jun-17 16:30N 38°33' W 009°26'2 4.1
2018-Jun-17 16:00N 38°32' W 009°24'2 4.2
2018-Jun-17 15:30N 38°30' W 009°22'2 4.5
2018-Jun-17 14:59N 38°29' W 009°20'2 4.0
2018-Jun-17 14:30N 38°27' W 009°18'2 4.1
2018-Jun-17 14:00N 38°26' W 009°16'2 4.5
2018-Jun-17 13:30N 38°25' W 009°14'2 4.9
2018-Jun-17 13:00N 38°24' W 009°10'3 5.9
2018-Jun-17 12:30N 38°26' W 009°07'1 0.0
2018-Jun-16 23:05N 38°26' W 009°07'0 0.0
2018-Jun-16 23:01N 38°26' W 009°07'0 0.0
2018-Jun-16 22:31N 38°26' W 009°07'1 1.9
2018-Jun-16 22:01N 38°26' W 009°06'3 4.8
2018-Jun-16 21:24N 38°23' W 009°05'2 3.5
2018-Jun-16 20:46N 38°21' W 009°04'1 3.9
2018-Jun-16 20:29N 38°20' W 009°04'2 4.5
2018-Jun-16 20:00N 38°18' W 009°03'6 0.6
2018-Jun-16 10:20N 38°14' W 008°57'0 1.2
2018-Jun-16 10:00N 38°14' W 008°57'0 0.3
2018-Jun-16 09:30N 38°15' W 008°57'0 0.3
2018-Jun-16 09:00N 38°15' W 008°57'0 0.3
2018-Jun-16 08:30N 38°15' W 008°57'1 2.8
2018-Jun-16 08:00N 38°14' W 008°55'0 0.6
2018-Jun-16 07:30N 38°14' W 008°55'0 0.3
2018-Jun-16 07:00N 38°15' W 008°55'0 0.5
2018-Jun-16 06:30N 38°15' W 008°55'0 0.5
2018-Jun-16 06:00N 38°15' W 008°56'0 0.6
2018-Jun-16 05:30N 38°15' W 008°56'0 0.6
2018-Jun-16 05:00N 38°15' W 008°56'0 0.4
2018-Jun-16 04:30N 38°15' W 008°57'0 0.3
2018-Jun-16 04:00N 38°15' W 008°57'0 0.3
2018-Jun-16 03:30N 38°15' W 008°57'0 0.3
2018-Jun-16 03:00N 38°15' W 008°57'4 1.9
2018-Jun-16 00:58N 38°15' W 009°02'2 4.7
2018-Jun-16 00:30N 38°17' W 009°02'3 5.3
2018-Jun-16 00:00N 38°20' W 009°04'3 5.4
2018-Jun-15 23:28N 38°23' W 009°05'3 5.5
2018-Jun-15 23:00N 38°25' W 009°06'2 0.6
2018-Jun-15 20:24N 38°26' W 009°07'0 0.0
2018-Jun-15 20:00N 38°26' W 009°07'0 0.0
2018-Jun-15 19:29N 38°26' W 009°07'0 0.0
2018-Jun-15 18:35N 38°26' W 009°07'0 0.0
2018-Jun-15 18:29N 38°26' W 009°07'0 0.0
2018-Jun-15 18:00N 38°26' W 009°07'0 0.0
2018-Jun-15 17:29N 38°26' W 009°07'0 0.0
2018-Jun-15 17:00N 38°26' W 009°07'0 0.2
2018-Jun-15 16:30N 38°26' W 009°07'0 0.0
2018-Jun-15 15:59N 38°26' W 009°07'1 2.1
2018-Jun-15 15:30N 38°26' W 009°06'3 6.5
2018-Jun-15 15:00N 38°23' W 009°04'3 6.4
2018-Jun-15 14:30N 38°20' W 009°01'3 6.1
2018-Jun-15 14:00N 38°18' W 008°59'4 0.8
2018-Jun-15 08:57N 38°14' W 008°57'0 0.5
2018-Jun-15 08:30N 38°14' W 008°57'0 0.4
2018-Jun-15 08:00N 38°14' W 008°57'1 1.8
2018-Jun-15 07:30N 38°14' W 008°56'0 0.4
2018-Jun-15 06:59N 38°14' W 008°56'0 0.5
2018-Jun-15 06:30N 38°14' W 008°57'0 0.4
2018-Jun-15 06:00N 38°14' W 008°57'0 0.6
2018-Jun-15 05:30N 38°14' W 008°57'1 1.4
2018-Jun-15 05:00N 38°15' W 008°57'0 0.2
2018-Jun-15 04:30N 38°15' W 008°57'0 0.1
2018-Jun-15 04:00N 38°15' W 008°57'5 2.4
2018-Jun-15 02:04N 38°18' W 009°01'0 6.3
2018-Jun-15 02:00N 38°18' W 009°01'3 3.5
2018-Jun-15 01:16N 38°20' W 009°04'0 0.6
2018-Jun-15 01:00N 38°20' W 009°04'1 0.6
2018-Jun-14 23:54N 38°21' W 009°04'0 0.8
2018-Jun-14 23:30N 38°21' W 009°05'0 0.8
2018-Jun-14 23:00N 38°20' W 009°05'1 0.7
2018-Jun-14 21:15N 38°21' W 009°06'1 5.7
2018-Jun-14 21:00N 38°23' W 009°06'3 6.0
2018-Jun-14 20:30N 38°26' W 009°06'1 0.0
2018-Jun-13 23:16N 38°26' W 009°07'1 3.3
2018-Jun-13 23:00N 38°26' W 009°06'3 5.2
2018-Jun-13 22:29N 38°23' W 009°06'2 4.6
2018-Jun-13 22:00N 38°21' W 009°06'2 3.6
2018-Jun-13 21:30N 38°21' W 009°04'3 4.6
2018-Jun-13 20:55N 38°18' W 009°04'7 0.6
2018-Jun-13 09:11N 38°14' W 008°57'1 3.6
2018-Jun-13 09:00N 38°14' W 008°57'0 0.2
2018-Jun-13 08:30N 38°14' W 008°57'0 0.4
2018-Jun-13 08:01N 38°14' W 008°57'0 0.4
2018-Jun-13 07:30N 38°14' W 008°57'0 0.4
2018-Jun-13 07:00N 38°14' W 008°57'1 1.0
2018-Jun-13 06:31N 38°13' W 008°57'0 0.5
2018-Jun-13 06:01N 38°14' W 008°57'1 1.1
2018-Jun-13 05:31N 38°13' W 008°57'0 0.6
2018-Jun-13 05:01N 38°14' W 008°57'0 0.1
2018-Jun-13 03:01N 38°14' W 008°57'0 0.5
2018-Jun-13 03:00N 38°14' W 008°57'0 0.4
2018-Jun-13 02:29N 38°14' W 008°57'5 2.0
2018-Jun-12 23:56N 38°17' W 009°03'3 5.7
2018-Jun-12 23:30N 38°19' W 009°04'3 5.8
2018-Jun-12 22:59N 38°22' W 009°05'3 6.0
2018-Jun-12 22:29N 38°25' W 009°06'1 2.9
2018-Jun-12 21:59N 38°26' W 009°07'0 0.3
2018-Jun-12 21:30N 38°26' W 009°07'0 0.0
2018-Jun-12 20:59N 38°26' W 009°07'0 0.0
2018-Jun-12 20:30N 38°26' W 009°07'0 0.0
2018-Jun-12 20:00N 38°26' W 009°07'0 0.0
2018-Jun-12 19:30N 38°26' W 009°07'0 0.0
2018-Jun-12 19:00N 38°26' W 009°07'0 0.0
2018-Jun-12 18:30N 38°26' W 009°07'0 0.0
2018-Jun-12 18:00N 38°26' W 009°07'0 0.0
2018-Jun-12 17:30N 38°26' W 009°07'0 0.0
2018-Jun-12 17:00N 38°26' W 009°07'0 0.0
2018-Jun-12 16:30N 38°26' W 009°07'0 0.0
2018-Jun-12 16:00N 38°26' W 009°07'0 0.0
2018-Jun-12 15:30N 38°26' W 009°07'0 0.0
2018-Jun-12 15:00N 38°26' W 009°07'0 0.0
2018-Jun-12 14:30N 38°26' W 009°07'0 0.0
2018-Jun-12 14:00N 38°26' W 009°07'0 0.0
2018-Jun-12 13:30N 38°26' W 009°07'0 0.0
2018-Jun-12 12:58N 38°26' W 009°07'0 0.0
2018-Jun-12 12:30N 38°26' W 009°07'0 0.0
2018-Jun-12 12:00N 38°26' W 009°07'  

Dump ship's entire track history